Time;durP1;ratioP1;P1;durP2;ratioP2;P2;SDS_P1;SDS_P2;PMS_P1;PMS_P2;Temp;Humidity;BMP_temperature;BMP_pressure;BME280_temperature;BME280_humidity;BME280_pressure;Samples;Min_cycle;Max_cycle;Signal;HPM_P1;HPM_P2
2024/01/19 00:02:15;;;;;;;9.55;6.97;;;;;;;-0.35;100.00;101314.31;5239724;28;20519;-79
2024/01/19 00:04:47;;;;;;;10.85;6.47;;;;;;;-0.40;100.00;101322.19;5238228;28;20693;-79
2024/01/19 00:07:20;;;;;;;9.52;6.40;;;;;;;-0.35;100.00;101322.88;5239131;28;20143;-79
2024/01/19 00:09:51;;;;;;;12.27;7.00;;;;;;;-0.33;100.00;101331.41;5237235;28;20025;-79
2024/01/19 00:12:23;;;;;;;9.88;6.13;;;;;;;-0.32;100.00;101327.94;5237882;28;20055;-79
2024/01/19 00:14:55;;;;;;;10.05;6.88;;;;;;;-0.30;100.00;101326.16;5239470;28;20036;-79
2024/01/19 00:17:27;;;;;;;11.75;6.95;;;;;;;-0.28;100.00;101329.50;5242295;28;20033;-79
2024/01/19 00:19:59;;;;;;;10.90;7.07;;;;;;;-0.26;100.00;101332.88;5240823;28;20029;-79
2024/01/19 00:22:31;;;;;;;10.07;6.13;;;;;;;-0.27;100.00;101331.19;5241877;28;20033;-79
2024/01/19 00:25:03;;;;;;;12.30;7.50;;;;;;;-0.37;100.00;101313.53;5243839;28;20054;-79
2024/01/19 00:27:35;;;;;;;12.55;6.35;;;;;;;-0.33;100.00;101331.41;5238257;28;20044;-79
2024/01/19 00:30:07;;;;;;;9.07;6.88;;;;;;;-0.35;100.00;101333.16;5242542;28;20041;-79
2024/01/19 00:32:39;;;;;;;11.20;5.78;;;;;;;-0.35;100.00;101334.91;5244361;28;20024;-79
2024/01/19 00:35:11;;;;;;;8.65;6.03;;;;;;;-0.32;100.00;101342.53;5245748;28;20032;-79
2024/01/19 00:37:43;;;;;;;10.70;6.45;;;;;;;-0.35;100.00;101347.78;5241950;28;20033;-79
2024/01/19 00:40:15;;;;;;;11.07;6.95;;;;;;;-0.47;100.00;101336.13;5243527;28;20039;-79
2024/01/19 00:42:47;;;;;;;11.30;6.65;;;;;;;-0.43;100.00;101358.31;5243855;28;20033;-79
2024/01/19 00:45:19;;;;;;;11.38;6.45;;;;;;;-0.41;100.00;101353.97;5244848;28;20037;-79
2024/01/19 00:47:51;;;;;;;7.00;5.65;;;;;;;-0.46;100.00;101350.69;5243619;28;20399;-79
2024/01/19 00:50:23;;;;;;;10.07;6.03;;;;;;;-0.47;100.00;101361.88;5245624;28;20029;-79
2024/01/19 00:52:55;;;;;;;9.77;6.18;;;;;;;-0.50;100.00;101359.38;5241300;28;20052;-79
2024/01/19 00:55:26;;;;;;;10.88;6.50;;;;;;;-0.50;100.00;101355.06;5243266;28;20056;-79
2024/01/19 00:57:58;;;;;;;10.13;6.57;;;;;;;-0.50;100.00;101356.81;5243271;28;20052;-79
2024/01/19 01:00:30;;;;;;;9.60;6.10;;;;;;;-0.55;100.00;101356.97;5243123;28;20025;-79
2024/01/19 01:03:03;;;;;;;10.48;5.90;;;;;;;-0.55;100.00;101349.22;5241808;28;20032;-79
2024/01/19 01:05:35;;;;;;;8.80;6.25;;;;;;;-0.57;100.00;101343.31;5241537;28;20026;-79
2024/01/19 01:08:06;;;;;;;8.52;6.43;;;;;;;-0.56;100.00;101357.00;5241837;28;20044;-79
2024/01/19 01:10:38;;;;;;;9.07;5.80;;;;;;;-0.56;100.00;101354.44;5236985;28;20052;-79
2024/01/19 01:13:10;;;;;;;7.65;4.68;;;;;;;-0.51;100.00;101352.56;5242364;28;20025;-79
2024/01/19 01:15:43;;;;;;;8.10;5.55;;;;;;;-0.54;100.00;101350.06;5240261;28;20033;-79
2024/01/19 01:18:16;;;;;;;7.22;5.10;;;;;;;-0.59;100.00;101345.06;5238270;28;20040;-79
2024/01/19 01:20:51;;;;;;;9.90;5.75;;;;;;;-0.47;100.00;101355.88;5242682;28;20037;-79
2024/01/19 01:23:24;;;;;;;8.52;4.95;;;;;;;-0.52;100.00;101361.19;5242501;28;20029;-79
2024/01/19 01:25:55;;;;;;;10.68;5.55;;;;;;;-0.46;100.00;101366.13;5241096;28;20514;-79
2024/01/19 01:28:27;;;;;;;7.88;4.90;;;;;;;-0.52;100.00;101366.31;5240264;28;20040;-79
2024/01/19 01:30:59;;;;;;;7.45;4.95;;;;;;;-0.52;100.00;101374.88;5242993;28;20033;-79
2024/01/19 01:33:31;;;;;;;7.50;4.63;;;;;;;-0.53;100.00;101370.63;5240912;28;20029;-79
2024/01/19 01:36:03;;;;;;;11.00;5.13;;;;;;;-0.57;100.00;101374.19;5239466;28;20454;-78
2024/01/19 01:38:35;;;;;;;7.85;5.25;;;;;;;-0.62;100.00;101378.63;5239064;28;20036;-79
2024/01/19 01:41:07;;;;;;;8.25;5.18;;;;;;;-0.62;100.00;101385.50;5241531;28;20450;-79
2024/01/19 01:43:39;;;;;;;10.05;4.45;;;;;;;-0.67;100.00;101392.53;5241912;28;20489;-79
2024/01/19 01:46:11;;;;;;;8.60;4.75;;;;;;;-0.79;100.00;101373.97;5240974;28;20029;-78
2024/01/19 01:48:43;;;;;;;7.93;4.95;;;;;;;-0.79;100.00;101379.13;5238701;28;20044;-79
2024/01/19 01:51:15;;;;;;;9.23;5.00;;;;;;;-0.73;100.00;101380.66;5239867;28;20430;-78
2024/01/19 01:53:47;;;;;;;7.28;5.22;;;;;;;-0.71;100.00;101393.50;5241766;28;20080;-78
2024/01/19 01:56:19;;;;;;;9.13;4.75;;;;;;;-0.75;100.00;101393.56;5241034;28;20044;-78
2024/01/19 01:58:51;;;;;;;8.50;4.85;;;;;;;-0.79;100.00;101391.97;5239783;28;20028;-78
2024/01/19 02:01:23;;;;;;;11.32;5.20;;;;;;;-0.83;100.00;101392.97;5238458;28;20044;-78
2024/01/19 02:03:57;;;;;;;8.93;5.50;;;;;;;-0.81;100.00;101409.19;5240773;28;20037;-78
2024/01/19 02:06:29;;;;;;;8.82;4.80;;;;;;;-0.93;100.00;101395.84;5242252;28;20037;-78
2024/01/19 02:09:01;;;;;;;11.75;4.85;;;;;;;-0.89;100.00;101407.72;5239255;28;20029;-78
2024/01/19 02:11:33;;;;;;;9.85;4.75;;;;;;;-0.87;100.00;101409.38;5242021;28;20389;-78
2024/01/19 02:14:06;;;;;;;6.10;4.03;;;;;;;-0.95;100.00;101402.72;5241504;28;20478;-78
2024/01/19 02:16:38;;;;;;;6.47;4.47;;;;;;;-0.91;100.00;101425.78;5241226;28;20914;-78
2024/01/19 02:19:10;;;;;;;7.53;4.47;;;;;;;-0.92;100.00;101429.22;5239264;28;20029;-78
2024/01/19 02:21:42;;;;;;;10.18;4.65;;;;;;;-1.01;100.00;101426.91;5241062;28;20067;-79
2024/01/19 02:24:15;;;;;;;6.72;4.15;;;;;;;-1.01;100.00;101421.75;5242097;28;20040;-78
2024/01/19 02:26:47;;;;;;;7.20;4.43;;;;;;;-0.97;100.00;101425.94;5242426;28;20498;-79
2024/01/19 02:29:20;;;;;;;6.55;3.63;;;;;;;-1.01;100.00;101430.31;5243589;28;20483;-78
2024/01/19 02:31:52;;;;;;;8.75;3.70;;;;;;;-0.99;100.00;101432.84;5240376;28;20650;-79
2024/01/19 02:34:23;;;;;;;6.75;3.90;;;;;;;-1.04;100.00;101432.13;5239943;28;20049;-78
2024/01/19 02:36:55;;;;;;;5.45;3.03;;;;;;;-0.92;100.00;101446.38;5241206;28;20067;-78
2024/01/19 02:39:27;;;;;;;4.68;2.60;;;;;;;-0.90;100.00;101453.19;5239118;28;20035;-78
2024/01/19 02:41:59;;;;;;;6.75;2.92;;;;;;;-0.85;100.00;101446.16;5239980;28;20024;-79
2024/01/19 02:44:32;;;;;;;5.93;3.00;;;;;;;-0.86;100.00;101448.78;5241480;28;20035;-78
2024/01/19 02:47:04;;;;;;;4.30;2.60;;;;;;;-0.76;100.00;101461.38;5233584;28;20033;-79
2024/01/19 02:49:37;;;;;;;6.13;2.65;;;;;;;-0.74;100.00;101463.88;5238079;28;20043;-78
2024/01/19 02:52:08;;;;;;;4.88;2.80;;;;;;;-0.68;100.00;101461.16;5239256;28;20048;-78
2024/01/19 02:54:40;;;;;;;6.45;2.42;;;;;;;-0.63;100.00;101467.00;5239426;28;20053;-79
2024/01/19 02:57:12;;;;;;;6.22;2.97;;;;;;;-0.60;100.00;101460.94;5238222;28;20069;-78
2024/01/19 02:59:44;;;;;;;6.97;2.78;;;;;;;-0.58;100.00;101469.44;5238967;28;20648;-78
2024/01/19 03:02:16;;;;;;;7.35;3.33;;;;;;;-0.52;100.00;101464.13;5237837;28;20043;-78
2024/01/19 03:04:48;;;;;;;9.57;3.20;;;;;;;-0.50;100.00;101467.47;5238314;28;20029;-78
2024/01/19 03:07:20;;;;;;;5.30;3.30;;;;;;;-0.44;100.00;101463.91;5239933;28;20044;-78
2024/01/19 03:09:52;;;;;;;4.15;3.25;;;;;;;-0.39;100.00;101470.59;5239145;28;20516;-78
2024/01/19 03:12:24;;;;;;;8.32;3.67;;;;;;;-0.38;100.00;101471.44;5240645;28;20033;-78
2024/01/19 03:14:56;;;;;;;7.82;3.92;;;;;;;-0.40;100.00;101468.91;5239120;28;20047;-78
2024/01/19 03:17:28;;;;;;;7.72;4.60;;;;;;;-0.35;100.00;101477.31;5233302;28;20040;-78
2024/01/19 03:20:00;;;;;;;5.10;3.87;;;;;;;-0.38;100.00;101464.56;5241517;28;20047;-78
2024/01/19 03:22:32;;;;;;;6.32;4.35;;;;;;;-0.31;100.00;101473.78;5238102;28;20029;-78
2024/01/19 03:25:04;;;;;;;6.22;4.32;;;;;;;-0.32;100.00;101481.56;5238192;28;20060;-78
2024/01/19 03:27:36;;;;;;;9.07;4.55;;;;;;;-0.35;100.00;101472.19;5240722;28;20108;-78
2024/01/19 03:30:09;;;;;;;6.05;4.88;;;;;;;-0.28;100.00;101485.72;5235416;28;20037;-78
2024/01/19 03:32:41;;;;;;;7.45;4.30;;;;;;;-0.28;100.00;101480.56;5238451;28;20039;-78
2024/01/19 03:35:13;;;;;;;7.80;5.15;;;;;;;-0.27;100.00;101488.25;5237105;28;20771;-78
2024/01/19 03:37:44;;;;;;;10.93;5.22;;;;;;;-0.26;100.00;101481.38;5238831;28;20037;-78
2024/01/19 03:40:16;;;;;;;10.88;5.28;;;;;;;-0.23;100.00;101483.84;5238056;28;20040;-78
2024/01/19 03:42:48;;;;;;;9.75;4.97;;;;;;;-0.29;100.00;101472.00;5239763;28;20045;-78
2024/01/19 03:45:20;;;;;;;7.40;5.63;;;;;;;-0.24;100.00;101477.03;5238770;28;20056;-78
2024/01/19 03:47:52;;;;;;;9.20;5.38;;;;;;;-0.21;100.00;101487.22;5238702;28;20756;-78
2024/01/19 03:50:24;;;;;;;9.18;6.00;;;;;;;-0.18;100.00;101489.72;5240174;28;20041;-78
2024/01/19 03:52:56;;;;;;;8.35;5.72;;;;;;;-0.17;100.00;101498.28;5238821;28;20033;-78
2024/01/19 03:55:28;;;;;;;10.65;6.05;;;;;;;-0.15;100.00;101497.38;5238535;28;20059;-78
2024/01/19 03:58:00;;;;;;;10.05;5.68;;;;;;;-0.13;100.00;101493.00;5237807;28;20036;-78
2024/01/19 04:00:31;;;;;;;12.05;6.05;;;;;;;-0.09;100.00;101504.06;5238310;28;20397;-78
2024/01/19 04:03:04;;;;;;;8.75;5.50;;;;;;;-0.13;100.00;101498.16;5238769;28;20033;-78
2024/01/19 04:05:35;;;;;;;10.55;6.30;;;;;;;-0.19;100.00;101487.19;5236694;28;20124;-78
2024/01/19 04:08:07;;;;;;;9.88;5.85;;;;;;;-0.13;100.00;101497.31;5237227;28;20465;-78
2024/01/19 04:10:39;;;;;;;8.57;5.88;;;;;;;-0.17;100.00;101491.41;5236182;28;20043;-78
2024/01/19 04:13:11;;;;;;;9.18;6.32;;;;;;;-0.18;100.00;101504.34;5238294;28;20032;-78
2024/01/19 04:15:44;;;;;;;19.02;6.75;;;;;;;-0.15;100.00;101509.38;5236320;28;20044;-78
2024/01/19 04:18:16;;;;;;;8.88;6.13;;;;;;;-0.15;100.00;101504.22;5239568;28;20036;-78
2024/01/19 04:20:48;;;;;;;8.55;6.30;;;;;;;-0.19;100.00;101518.06;5235958;28;20034;-78
2024/01/19 04:23:20;;;;;;;10.00;6.30;;;;;;;-0.20;100.00;101511.25;5237539;28;20040;-78
2024/01/19 04:25:52;;;;;;;11.48;6.30;;;;;;;-0.21;100.00;101512.16;5238502;28;20029;-78
2024/01/19 04:28:24;;;;;;;12.43;6.43;;;;;;;-0.22;100.00;101518.19;5236759;28;20040;-78
2024/01/19 04:30:56;;;;;;;10.27;5.95;;;;;;;-0.23;100.00;101530.19;5238960;28;20033;-78
2024/01/19 04:33:28;;;;;;;7.82;5.80;;;;;;;-0.25;100.00;101532.81;5239186;28;20176;-78
2024/01/19 04:35:59;;;;;;;10.40;6.75;;;;;;;-0.26;100.00;101532.88;5240027;28;21031;-78
2024/01/19 04:38:31;;;;;;;11.45;7.05;;;;;;;-0.28;100.00;101532.91;5228432;28;20583;-78
2024/01/19 04:41:04;;;;;;;13.43;8.13;;;;;;;-0.30;100.00;101534.69;5238475;28;20112;-78
2024/01/19 04:43:36;;;;;;;10.50;6.47;;;;;;;-0.28;100.00;101540.63;5239232;28;20046;-78
2024/01/19 04:46:08;;;;;;;10.70;6.15;;;;;;;-0.29;100.00;101551.84;5239318;28;20029;-78
2024/01/19 04:48:39;;;;;;;9.48;6.10;;;;;;;-0.28;100.00;101555.25;5236043;28;20049;-78
2024/01/19 04:51:11;;;;;;;13.77;8.02;;;;;;;-0.32;100.00;101558.78;5237526;28;20036;-78
2024/01/19 04:53:43;;;;;;;10.60;6.90;;;;;;;-0.32;100.00;101564.78;5236948;28;20036;-78
2024/01/19 04:56:15;;;;;;;8.05;6.38;;;;;;;-0.35;100.00;101559.72;5237790;28;20053;-78
2024/01/19 04:58:47;;;;;;;7.65;5.97;;;;;;;-0.36;100.00;101560.59;5235954;28;20041;-78
2024/01/19 05:01:19;;;;;;;9.80;6.47;;;;;;;-0.36;100.00;101570.06;5238101;28;20475;-78
2024/01/19 05:03:51;;;;;;;10.15;7.30;;;;;;;-0.39;100.00;101568.41;5238793;28;20033;-78
2024/01/19 05:06:23;;;;;;;9.13;6.65;;;;;;;-0.40;100.00;101564.16;5236660;28;20502;-78
2024/01/19 05:08:55;;;;;;;9.63;6.47;;;;;;;-0.39;100.00;101568.41;5237362;28;20051;-78
2024/01/19 05:11:27;;;;;;;10.95;7.10;;;;;;;-0.45;100.00;101566.03;5238492;28;20029;-78
2024/01/19 05:13:59;;;;;;;12.68;8.45;;;;;;;-0.44;100.00;101572.84;5240236;28;20056;-78
2024/01/19 05:16:30;;;;;;;10.75;6.65;;;;;;;-0.43;100.00;101576.25;5242027;28;20033;-78
2024/01/19 05:19:03;;;;;;;13.13;7.30;;;;;;;-0.47;100.00;101578.06;5238778;28;20032;-78
2024/01/19 05:21:35;;;;;;;12.13;7.95;;;;;;;-0.46;100.00;101586.63;5233004;28;20037;-78
2024/01/19 05:24:07;;;;;;;11.48;7.50;;;;;;;-0.48;100.00;101576.41;5239303;28;20037;-78
2024/01/19 05:26:39;;;;;;;10.63;6.80;;;;;;;-0.50;100.00;101588.44;5239828;28;20052;-78
2024/01/19 05:29:11;;;;;;;14.57;7.82;;;;;;;-0.51;100.00;101584.19;5238577;28;20380;-78
2024/01/19 05:31:43;;;;;;;8.93;6.70;;;;;;;-0.52;100.00;101587.66;5237568;28;20793;-78
2024/01/19 05:34:15;;;;;;;12.25;7.43;;;;;;;-0.56;100.00;101596.34;5238656;28;20042;-78
2024/01/19 05:36:47;;;;;;;10.88;7.10;;;;;;;-0.53;100.00;101597.13;5237347;28;20073;-78
2024/01/19 05:39:19;;;;;;;12.38;7.97;;;;;;;-0.56;100.00;101610.06;5239093;28;20020;-78
2024/01/19 05:41:51;;;;;;;10.07;7.30;;;;;;;-0.55;100.00;101618.63;5238819;28;20391;-78
2024/01/19 05:44:23;;;;;;;10.57;7.60;;;;;;;-0.58;100.00;101623.84;5240420;28;20057;-78
2024/01/19 05:46:55;;;;;;;8.07;5.97;;;;;;;-0.65;100.00;101620.56;5241335;28;20033;-78
2024/01/19 05:49:27;;;;;;;12.52;8.73;;;;;;;-0.54;100.00;101640.91;5241610;28;20482;-78
2024/01/19 05:51:58;;;;;;;12.02;7.95;;;;;;;-0.58;100.00;101641.84;5239562;28;20041;-78
2024/01/19 05:54:33;;;;;;;13.85;8.40;;;;;;;-0.48;100.00;101651.03;5238439;28;20045;-78
2024/01/19 05:57:05;;;;;;;8.90;7.32;;;;;;;-0.51;100.00;101654.53;5242069;28;20033;-78
2024/01/19 05:59:40;;;;;;;11.80;7.13;;;;;;;-0.46;100.00;101658.72;5240001;28;20033;-78
2024/01/19 06:02:12;;;;;;;13.65;8.00;;;;;;;-0.50;100.00;101661.34;5240494;28;20556;-78
2024/01/19 06:04:44;;;;;;;10.70;7.38;;;;;;;-0.45;100.00;101666.41;5241258;28;20044;-78
2024/01/19 06:07:16;;;;;;;10.10;7.20;;;;;;;-0.44;100.00;101660.38;5240566;28;20033;-78
2024/01/19 06:09:48;;;;;;;9.38;7.63;;;;;;;-0.40;100.00;101668.88;5232030;28;20045;-78
2024/01/19 06:12:20;;;;;;;12.23;7.10;;;;;;;-0.38;100.00;101685.97;5240891;28;20368;-78
2024/01/19 06:14:52;;;;;;;9.68;6.78;;;;;;;-0.38;100.00;101697.97;5240255;28;20072;-78
2024/01/19 06:17:24;;;;;;;11.10;7.38;;;;;;;-0.37;100.00;101697.94;5239126;28;20493;-78
2024/01/19 06:19:56;;;;;;;9.65;7.38;;;;;;;-0.32;100.00;101693.50;5238035;28;20037;-78
2024/01/19 06:22:28;;;;;;;10.43;7.72;;;;;;;-0.28;100.00;101692.56;5239410;28;20041;-78
2024/01/19 06:25:00;;;;;;;10.05;6.93;;;;;;;-0.30;100.00;101699.47;5237944;28;20066;-78
2024/01/19 06:27:31;;;;;;;10.23;7.35;;;;;;;-0.23;100.00;101715.59;5239336;28;20061;-78
2024/01/19 06:30:05;;;;;;;10.30;7.05;;;;;;;-0.22;100.00;101713.91;5242049;28;20029;-78
2024/01/19 06:32:37;;;;;;;9.25;6.60;;;;;;;-0.24;100.00;101711.34;5238745;28;20037;-78
2024/01/19 06:35:09;;;;;;;9.80;6.88;;;;;;;-0.22;100.00;101719.03;5239587;28;20048;-78
2024/01/19 06:37:41;;;;;;;8.85;6.53;;;;;;;-0.22;100.00;101724.19;5240984;28;20036;-78
2024/01/19 06:40:14;;;;;;;11.40;6.93;;;;;;;-0.25;100.00;101733.69;5240646;28;20029;-78
2024/01/19 06:42:46;;;;;;;11.55;6.93;;;;;;;-0.32;100.00;101733.88;5244449;28;20034;-78
2024/01/19 06:45:18;;;;;;;9.73;6.90;;;;;;;-0.29;100.00;101744.09;5239653;28;20029;-78
2024/01/19 06:47:51;;;;;;;9.30;6.43;;;;;;;-0.28;100.00;101750.94;5238858;28;20039;-79
2024/01/19 06:50:23;;;;;;;8.55;6.32;;;;;;;-0.28;100.00;101735.47;5238612;28;20040;-79
2024/01/19 06:52:54;;;;;;;10.05;6.63;;;;;;;-0.32;100.00;101742.44;5239190;28;20033;-79
2024/01/19 06:55:27;;;;;;;9.82;7.15;;;;;;;-0.42;100.00;101737.56;5236874;28;20150;-78
2024/01/19 06:57:59;;;;;;;10.90;6.35;;;;;;;-0.35;100.00;101746.81;5235298;28;20032;-78
2024/01/19 07:00:31;;;;;;;8.38;5.85;;;;;;;-0.43;100.00;101752.16;5240739;28;20116;-79
2024/01/19 07:03:03;;;;;;;12.13;6.57;;;;;;;-0.53;100.00;101748.09;5239885;28;20029;-79
2024/01/19 07:05:35;;;;;;;9.73;6.38;;;;;;;-0.45;100.00;101764.22;5234604;28;20600;-78
2024/01/19 07:08:07;;;;;;;9.45;7.07;;;;;;;-0.46;100.00;101777.97;5235637;28;20044;-78
2024/01/19 07:10:39;;;;;;;10.77;7.68;;;;;;;-0.50;100.00;101772.03;5231453;28;20041;-78
2024/01/19 07:13:11;;;;;;;8.02;6.07;;;;;;;-0.50;100.00;101776.34;5236289;28;20541;-79
2024/01/19 07:15:43;;;;;;;9.38;6.70;;;;;;;-0.52;100.00;101775.56;5237241;28;20029;-78
2024/01/19 07:18:15;;;;;;;8.13;6.75;;;;;;;-0.57;100.00;101778.25;5238021;28;20039;-78
2024/01/19 07:20:47;;;;;;;9.13;6.82;;;;;;;-0.60;100.00;101790.34;5237638;28;20356;-77
2024/01/19 07:23:18;;;;;;;8.38;6.53;;;;;;;-0.62;100.00;101792.09;5237171;28;20434;-78
2024/01/19 07:25:50;;;;;;;7.47;6.25;;;;;;;-0.64;100.00;101797.28;5237205;28;20041;-78
2024/01/19 07:28:24;;;;;;;9.18;6.18;;;;;;;-0.64;100.00;101801.59;5233292;28;20025;-78
2024/01/19 07:30:56;;;;;;;9.25;6.57;;;;;;;-0.69;100.00;101791.38;5235325;28;20048;-78
2024/01/19 07:33:28;;;;;;;8.73;5.90;;;;;;;-0.79;100.00;101784.75;5238914;28;20442;-78
2024/01/19 07:36:00;;;;;;;9.63;6.18;;;;;;;-0.75;100.00;101800.09;5236231;28;20091;-78
2024/01/19 07:38:32;;;;;;;9.55;5.90;;;;;;;-0.80;100.00;101788.19;5235512;28;20025;-78
2024/01/19 07:41:06;;;;;;;8.77;5.68;;;;;;;-0.76;100.00;101802.69;5235157;28;20047;-78
2024/01/19 07:43:38;;;;;;;9.63;6.40;;;;;;;-0.77;100.00;101809.56;5238366;28;20996;-78
2024/01/19 07:46:11;;;;;;;9.80;6.72;;;;;;;-0.78;100.00;101809.59;5236871;28;20044;-79
2024/01/19 07:48:43;;;;;;;8.73;5.97;;;;;;;-0.76;100.00;101810.41;5238052;28;20036;-78
2024/01/19 07:51:15;;;;;;;7.75;5.75;;;;;;;-0.73;100.00;101818.06;5236820;28;20041;-78
2024/01/19 07:53:47;;;;;;;9.88;6.47;;;;;;;-0.76;100.00;101826.72;5240548;28;20034;-78
2024/01/19 07:56:19;;;;;;;14.55;6.97;;;;;;;-0.73;100.00;101834.34;5238443;28;20049;-79
2024/01/19 07:58:51;;;;;;;9.57;6.97;;;;;;;-0.73;100.00;101823.19;5239683;28;20037;-79
2024/01/19 08:01:23;;;;;;;14.07;7.50;;;;;;;-0.68;100.00;101834.25;5235468;28;20405;-79
2024/01/19 08:03:55;;;;;;;13.05;6.95;;;;;;;-0.69;100.00;101834.28;5238984;28;20037;-79
2024/01/19 08:06:27;;;;;;;8.45;6.53;;;;;;;-0.64;100.00;101841.03;5238011;28;20041;-79
2024/01/19 08:08:59;;;;;;;11.60;6.97;;;;;;;-0.65;100.00;101847.03;5237594;28;20033;-78
2024/01/19 08:11:31;;;;;;;10.60;7.03;;;;;;;-0.64;100.00;101848.75;5237263;28;20052;-78
2024/01/19 08:14:03;;;;;;;12.23;7.00;;;;;;;-0.69;100.00;101847.97;5226574;28;20631;-77
2024/01/19 08:16:34;;;;;;;10.23;7.05;;;;;;;-0.66;100.00;101859.94;5237545;28;20043;-78
2024/01/19 08:19:07;;;;;;;12.55;6.88;;;;;;;-0.67;100.00;101865.97;5237192;28;20033;-78
2024/01/19 08:21:42;;;;;;;10.93;7.45;;;;;;;-0.64;100.00;101874.47;5235902;28;20032;-78
2024/01/19 08:24:14;;;;;;;9.98;6.63;;;;;;;-0.74;100.00;101860.94;5235909;28;20033;-78
2024/01/19 08:26:46;;;;;;;11.48;7.22;;;;;;;-0.70;100.00;101872.03;5236653;28;20064;-78
2024/01/19 08:29:18;;;;;;;11.32;6.90;;;;;;;-0.72;100.00;101868.63;5235810;28;20036;-78
2024/01/19 08:31:51;;;;;;;9.30;6.05;;;;;;;-0.74;100.00;101860.94;5237285;28;20032;-78
2024/01/19 08:34:22;;;;;;;10.30;6.50;;;;;;;-0.68;100.00;101871.97;5238479;28;20189;-78
2024/01/19 08:36:54;;;;;;;9.55;6.53;;;;;;;-0.71;100.00;101875.50;5237012;28;20044;-78
2024/01/19 08:39:26;;;;;;;9.25;6.05;;;;;;;-0.79;100.00;101867.94;5236855;28;20033;-78
2024/01/19 08:41:58;;;;;;;9.80;6.40;;;;;;;-0.71;100.00;101879.78;5235948;28;20479;-78
2024/01/19 08:44:30;;;;;;;8.65;6.22;;;;;;;-0.73;100.00;101875.50;5232230;28;21136;-78
2024/01/19 08:47:03;;;;;;;11.30;6.95;;;;;;;-0.69;100.00;101886.59;5240869;28;20049;-78
2024/01/19 08:49:34;;;;;;;9.00;6.65;;;;;;;-0.66;100.00;101888.25;5240403;28;20056;-78
2024/01/19 08:52:06;;;;;;;10.73;6.35;;;;;;;-0.56;100.00;101892.34;5240538;28;20942;-79
2024/01/19 08:54:38;;;;;;;7.40;5.18;;;;;;;-0.56;100.00;101895.75;5236300;28;20041;-79
2024/01/19 08:57:10;;;;;;;7.18;5.70;;;;;;;-0.50;100.00;101890.44;5241282;28;20487;-79
2024/01/19 08:59:42;;;;;;;8.93;6.28;;;;;;;-0.50;100.00;101895.59;5241073;28;20366;-79
2024/01/19 09:02:14;;;;;;;7.10;5.75;;;;;;;-0.48;100.00;101903.31;5240484;28;20040;-79
2024/01/19 09:04:46;;;;;;;9.85;6.63;;;;;;;-0.44;100.00;101910.06;5240130;28;20033;-78
2024/01/19 09:07:18;;;;;;;9.20;6.28;;;;;;;-0.40;100.00;101916.00;5237479;28;20029;-79
2024/01/19 09:09:50;;;;;;;10.00;5.93;;;;;;;-0.35;100.00;101921.88;5242391;28;20037;-78
2024/01/19 09:12:22;;;;;;;10.10;6.53;;;;;;;-0.36;100.00;101917.63;5242887;28;20041;-78
2024/01/19 09:14:54;;;;;;;8.57;5.63;;;;;;;-0.34;100.00;101913.28;5233959;28;20037;-78
2024/01/19 09:17:26;;;;;;;10.45;5.25;;;;;;;-0.26;100.00;101932.00;5242281;28;20044;-77
2024/01/19 09:19:58;;;;;;;9.68;5.55;;;;;;;-0.24;100.00;101932.81;5244414;28;20042;-78
2024/01/19 09:22:30;;;;;;;8.25;6.38;;;;;;;-0.18;100.00;101929.25;5241856;28;20025;-79
2024/01/19 09:25:02;;;;;;;8.48;5.82;;;;;;;-0.10;100.00;101943.66;5241509;28;20033;-78
2024/01/19 09:27:34;;;;;;;8.93;5.97;;;;;;;-0.14;100.00;101933.44;5237781;28;20501;-79
2024/01/19 09:30:07;;;;;;;7.60;5.68;;;;;;;-0.06;100.00;101947.00;5233592;28;20028;-79
2024/01/19 09:32:40;;;;;;;10.43;6.05;;;;;;;-0.05;100.00;101949.53;5242529;28;20029;-79
2024/01/19 09:35:13;;;;;;;10.02;6.07;;;;;;;0.02;100.00;101959.72;5242082;28;20025;-79
2024/01/19 09:37:45;;;;;;;9.38;6.25;;;;;;;0.04;100.00;101951.06;5236656;28;20042;-80
2024/01/19 09:40:19;;;;;;;7.97;6.55;;;;;;;0.07;100.00;101958.69;5242562;28;20395;-79
2024/01/19 09:42:54;;;;;;;10.77;6.80;;;;;;;0.19;100.00;101960.13;5240884;28;20033;-79
2024/01/19 09:45:41;;;;;;;9.35;6.45;;;;;;;0.18;100.00;101961.88;5240320;28;20040;-78
2024/01/19 09:48:24;;;;;;;11.68;6.75;;;;;;;0.34;100.00;101971.81;5237591;28;20052;-79
2024/01/19 09:50:56;;;;;;;11.37;6.73;;;;;;;0.26;100.00;101969.41;5243780;28;20045;-80
2024/01/19 09:53:32;;;;;;;8.20;6.88;;;;;;;0.35;100.00;101971.81;5242283;28;20096;-80
2024/01/19 09:56:04;;;;;;;11.32;6.80;;;;;;;0.31;100.00;101969.34;5242624;28;20418;-80
2024/01/19 09:58:36;;;;;;;13.60;7.30;;;;;;;0.39;100.00;101981.16;5244230;28;20041;-80
2024/01/19 10:01:08;;;;;;;10.60;7.25;;;;;;;0.43;100.00;101990.50;5245738;28;20383;-80
2024/01/19 10:03:40;;;;;;;11.93;7.38;;;;;;;0.52;100.00;101994.56;5251974;28;20051;-79
2024/01/19 10:06:12;;;;;;;10.98;7.30;;;;;;;0.60;100.00;102002.13;5253400;28;20032;-79
2024/01/19 10:08:44;;;;;;;10.25;6.97;;;;;;;0.64;100.00;101999.44;5245516;28;20048;-79
2024/01/19 10:11:16;;;;;;;13.18;7.03;;;;;;;0.74;100.00;102007.78;5254534;28;20029;-79
2024/01/19 10:13:48;;;;;;;10.60;7.72;;;;;;;0.77;100.00;102001.72;5253607;28;20021;-79
2024/01/19 10:16:21;;;;;;;11.07;7.00;;;;;;;0.89;100.00;102009.97;5251571;28;20045;-79
2024/01/19 10:18:54;;;;;;;10.98;7.45;;;;;;;0.96;100.00;102008.09;5252440;28;20033;-79
2024/01/19 10:21:27;;;;;;;10.25;7.35;;;;;;;1.00;100.00;101999.38;5253000;28;20033;-79
2024/01/19 10:24:08;;;;;;;8.52;6.82;;;;;;;1.19;100.00;102016.06;5255264;28;20339;-79
2024/01/19 10:26:46;;;;;;;11.27;8.23;;;;;;;1.12;100.00;102011.97;5252732;28;20051;-78
2024/01/19 10:29:18;;;;;;;10.55;7.40;;;;;;;1.21;100.00;102013.44;5252298;28;20056;-79
2024/01/19 10:31:52;;;;;;;12.15;7.32;;;;;;;1.25;100.00;102016.78;5251812;28;20033;-79
2024/01/19 10:34:28;;;;;;;9.40;6.60;;;;;;;1.32;100.00;102011.41;5251362;28;20033;-79
2024/01/19 10:37:00;;;;;;;12.18;7.10;;;;;;;1.42;100.00;102012.00;5253582;28;20032;-79
2024/01/19 10:39:34;;;;;;;10.88;7.28;;;;;;;1.52;100.00;102017.78;5248804;28;20033;-79
2024/01/19 10:42:07;;;;;;;12.25;7.43;;;;;;;1.56;100.00;102019.38;5252821;28;20033;-79
2024/01/19 10:44:39;;;;;;;10.13;7.40;;;;;;;1.60;100.00;102016.66;5252201;28;20025;-79
2024/01/19 10:47:12;;;;;;;13.27;7.97;;;;;;;1.72;100.00;102015.47;5250539;28;20417;-79
2024/01/19 10:49:44;;;;;;;9.45;7.07;;;;;;;1.75;100.00;102015.38;5246206;28;20036;-79
2024/01/19 10:52:18;;;;;;;10.65;7.72;;;;;;;1.76;100.00;102017.06;5242204;28;20398;-79
2024/01/19 10:54:51;;;;;;;10.10;7.80;;;;;;;1.79;100.00;102014.41;5238265;28;20444;-79
2024/01/19 10:57:23;;;;;;;21.38;7.88;;;;;;;1.90;100.00;102014.09;5240903;28;20490;-79
2024/01/19 10:59:55;;;;;;;12.40;7.85;;;;;;;1.98;100.00;102012.13;5236218;28;20368;-79
2024/01/19 11:02:28;;;;;;;10.13;7.53;;;;;;;2.04;100.00;102011.06;5236715;28;20039;-79
2024/01/19 11:05:00;;;;;;;11.05;7.88;;;;;;;2.05;100.00;102008.44;5236332;28;20033;-79
2024/01/19 11:07:32;;;;;;;12.50;8.18;;;;;;;2.16;100.00;102021.91;5231663;28;20132;-79
2024/01/19 11:10:04;;;;;;;14.30;8.85;;;;;;;2.10;100.00;102003.97;5236681;28;20041;-79
2024/01/19 11:12:40;;;;;;;10.82;8.43;;;;;;;2.19;100.00;102019.19;5238441;28;20036;-79
2024/01/19 11:15:13;;;;;;;11.75;8.38;;;;;;;2.26;100.00;102026.75;5239930;28;20041;-79
2024/01/19 11:17:46;;;;;;;;;;;;;;;2.72;100.00;102023.53;5237817;28;20029;-80
2024/01/19 11:20:21;;;;;;;17.67;9.07;;;;;;;2.40;100.00;102019.44;5239681;28;19920;-80
2024/01/19 11:22:53;;;;;;;13.20;8.82;;;;;;;2.30;100.00;102011.09;5237692;28;20043;-80
2024/01/19 11:25:52;;;;;;;11.00;8.38;;;;;;;2.32;100.00;102005.91;5237153;28;20029;-80
2024/01/19 11:28:39;;;;;;;12.60;9.13;;;;;;;2.53;100.00;102025.88;5241400;28;20033;-80
2024/01/19 11:31:22;;;;;;;12.25;8.85;;;;;;;2.61;100.00;102017.88;5239856;28;20025;-80
2024/01/19 11:33:57;;;;;;;11.50;8.80;;;;;;;2.53;100.00;102012.94;5245509;28;20093;-80
2024/01/19 11:36:38;;;;;;;12.82;8.60;;;;;;;2.61;100.00;102013.56;5252143;28;20045;-81
2024/01/19 11:39:13;;;;;;;12.43;9.07;;;;;;;2.63;100.00;102022.13;5249367;28;20056;-80